createdAt,value
2019-04-11T00:01:37.744Z,34.57
2019-04-11T00:06:03.921Z,39.80
2019-04-11T00:10:37.400Z,35.77
2019-04-11T00:15:09.294Z,41.13
2019-04-11T00:24:12.880Z,41.10
2019-04-11T00:28:45.811Z,41.00
2019-04-11T00:33:20.275Z,31.47
2019-04-11T00:37:53.701Z,28.83
2019-04-11T00:42:45.224Z,30.70
2019-04-11T00:47:17.162Z,33.90
2019-04-11T00:51:49.921Z,40.50
2019-04-11T00:56:24.396Z,37.17
2019-04-11T01:00:57.532Z,34.70
2019-04-11T01:05:29.797Z,36.97
2019-04-11T01:10:01.360Z,31.87
2019-04-11T01:14:34.190Z,38.03
2019-04-11T01:19:09.446Z,31.90
2019-04-11T01:23:41.036Z,34.17
2019-04-11T01:28:16.728Z,34.87
2019-04-11T01:32:48.679Z,38.73
2019-04-11T01:41:55.175Z,31.00
2019-04-11T01:46:29.814Z,31.00
2019-04-11T01:51:03.405Z,25.70
2019-04-11T01:55:40.847Z,22.57
2019-04-11T02:00:12.939Z,30.67
2019-04-11T02:04:49.148Z,31.40
2019-04-11T02:09:28.329Z,22.57
2019-04-11T02:14:12.090Z,31.50
2019-04-11T02:18:33.229Z,31.37
2019-04-11T02:23:29.315Z,27.57
2019-04-11T02:32:34.369Z,30.80
2019-04-11T02:37:09.267Z,31.57
2019-04-11T02:41:42.045Z,36.43
2019-04-11T02:46:23.590Z,39.60
2019-04-11T02:50:50.351Z,36.13
2019-04-11T02:55:25.188Z,29.30
2019-04-11T02:59:56.516Z,33.87
2019-04-11T03:04:31.011Z,38.57
2019-04-11T03:09:07.134Z,32.97
2019-04-11T03:13:41.987Z,30.40
2019-04-11T03:18:33.360Z,39.90
2019-04-11T03:22:56.263Z,40.53
2019-04-11T03:27:28.047Z,24.23
2019-04-11T03:33:01.419Z,34.00
2019-04-11T03:37:13.661Z,32.43
2019-04-11T03:41:23.434Z,42.57
2019-04-11T03:46:03.814Z,30.40
2019-04-11T03:50:21.362Z,32.90
2019-04-11T03:54:55.998Z,32.07
2019-04-11T03:59:29.026Z,32.10
2019-04-11T04:04:02.681Z,33.63
2019-04-11T04:08:36.374Z,29.63
2019-04-11T04:13:14.294Z,33.70
2019-04-11T04:17:49.754Z,28.27
2019-04-11T04:22:35.465Z,21.13
2019-04-11T04:27:10.068Z,33.23
2019-04-11T04:31:42.506Z,34.20
2019-04-11T04:36:18.321Z,41.23
2019-04-11T04:41:22.425Z,35.07
2019-04-11T04:50:20.261Z,36.90
2019-04-11T04:54:49.224Z,32.50
2019-04-11T04:59:21.703Z,35.40
2019-04-11T05:03:54.226Z,31.17
2019-04-11T05:12:59.840Z,26.77
2019-04-11T05:17:32.391Z,25.27
2019-04-11T05:22:06.400Z,22.93
2019-04-11T05:26:42.289Z,25.03
2019-04-11T05:31:14.313Z,24.77
2019-04-11T05:35:49.985Z,24.57
2019-04-11T05:40:21.183Z,31.93
2019-04-11T05:44:54.760Z,35.87
2019-04-11T05:49:37.260Z,20.97
2019-04-11T05:54:10.608Z,36.90
2019-04-11T05:58:45.123Z,33.27
2019-04-11T06:03:17.748Z,30.50
2019-04-11T06:08:00.161Z,23.53
2019-04-11T06:26:21.231Z,28.37
2019-04-11T06:31:10.004Z,21.47
2019-04-11T06:45:31.370Z,25.50
2019-04-11T06:50:15.222Z,26.83
2019-04-11T06:55:04.998Z,28.47
2019-04-11T06:59:40.733Z,27.40
2019-04-11T07:04:33.559Z,26.50
2019-04-11T07:09:24.423Z,24.80
2019-04-11T07:14:16.018Z,25.07
2019-04-11T07:18:54.826Z,37.53
2019-04-11T07:23:45.467Z,32.17
2019-04-11T07:28:29.522Z,26.87
2019-04-11T07:33:35.331Z,26.97
2019-04-11T07:38:10.060Z,29.97
2019-04-11T07:43:05.830Z,28.53
2019-04-11T07:47:52.650Z,27.63
2019-04-11T07:52:25.083Z,20.27
2019-04-11T07:57:14.934Z,19.63
2019-04-11T08:01:54.963Z,22.73
2019-04-11T08:06:34.273Z,17.83
2019-04-11T08:11:25.522Z,18.83
2019-04-11T08:16:14.753Z,21.20
2019-04-11T08:21:06.049Z,16.77
2019-04-11T08:25:56.377Z,20.83
2019-04-11T08:30:33.040Z,18.93
2019-04-11T08:35:13.902Z,10.87
2019-04-11T08:39:50.256Z,16.73
2019-04-11T08:44:32.115Z,7.00
2019-04-11T08:49:09.832Z,17.13
2019-04-11T08:53:53.857Z,16.43
2019-04-11T08:58:31.456Z,14.07
2019-04-11T09:03:13.753Z,16.23
2019-04-11T09:07:54.393Z,23.60
2019-04-11T09:12:26.818Z,15.23
2019-04-11T09:17:21.503Z,14.97
2019-04-11T09:22:08.904Z,13.33
2019-04-11T09:27:00.284Z,14.83
2019-04-11T09:31:49.524Z,13.37
2019-04-11T09:36:40.906Z,16.27
2019-04-11T09:41:32.300Z,16.07
2019-04-11T09:46:24.704Z,16.97
2019-04-11T09:51:09.379Z,15.30
2019-04-11T09:55:50.053Z,17.67
2019-04-11T10:00:43.752Z,18.17
2019-04-11T10:05:14.350Z,12.20
2019-04-11T10:10:04.987Z,13.00
2019-04-11T10:14:39.711Z,10.93
2019-04-11T10:19:22.063Z,16.47
2019-04-11T10:24:09.766Z,16.03
2019-04-11T10:28:49.595Z,13.43
2019-04-11T10:33:41.390Z,16.10
2019-04-11T10:38:14.018Z,17.13
2019-04-11T10:43:07.721Z,13.83
2019-04-11T10:47:41.294Z,11.67
2019-04-11T10:52:18.458Z,15.93
2019-04-11T11:01:50.631Z,15.23
2019-04-11T11:06:27.476Z,13.83
2019-04-11T11:10:59.872Z,11.70
2019-04-11T11:15:37.814Z,14.63
2019-04-11T11:20:34.640Z,13.33
2019-04-11T11:25:22.397Z,10.87
2019-04-11T11:30:09.201Z,14.13
2019-04-11T11:34:52.138Z,10.13
2019-04-11T11:39:29.441Z,12.33
2019-04-11T11:44:04.074Z,13.13
2019-04-11T11:48:39.889Z,19.90
2019-04-11T11:53:29.904Z,12.90
2019-04-11T11:58:09.049Z,15.13
2019-04-11T12:02:46.475Z,13.43
2019-04-11T12:07:18.938Z,14.03
2019-04-11T12:11:56.739Z,13.40
2019-04-11T12:16:56.074Z,10.93
2019-04-11T12:21:28.510Z,9.93
2019-04-11T12:30:44.950Z,13.40
2019-04-11T12:35:30.571Z,10.03
2019-04-11T12:40:21.456Z,12.97
2019-04-11T12:45:09.886Z,8.37
2019-04-11T12:49:53.191Z,10.47
2019-04-11T12:54:29.334Z,8.50
2019-04-11T12:59:05.795Z,10.83
2019-04-11T13:03:49.432Z,11.77
2019-04-11T13:08:41.628Z,20.10
2019-04-11T13:13:28.962Z,10.90
2019-04-11T13:18:20.227Z,9.00
2019-04-11T13:22:53.036Z,10.57
2019-04-11T13:27:45.021Z,13.37
2019-04-11T13:32:29.726Z,13.47
2019-04-11T13:37:09.517Z,12.40
2019-04-11T13:42:00.368Z,10.27
2019-04-11T13:46:44.614Z,11.77
2019-04-11T13:51:22.412Z,12.90
2019-04-11T13:55:55.607Z,16.10
2019-04-11T14:00:45.695Z,18.17
2019-04-11T14:05:19.426Z,20.70
2019-04-11T14:09:55.167Z,15.27
2019-04-11T14:14:35.773Z,12.37
2019-04-11T14:19:15.067Z,13.40
2019-04-11T14:24:04.144Z,11.17
2019-04-11T14:28:44.566Z,14.77
2019-04-11T14:33:18.319Z,15.03
2019-04-11T14:37:58.038Z,11.00
2019-04-11T14:42:41.873Z,17.10
2019-04-11T14:47:34.759Z,16.40
2019-04-11T14:52:25.223Z,14.43
2019-04-11T14:57:55.020Z,15.00
2019-04-11T15:02:45.765Z,16.87
2019-04-11T15:07:18.541Z,11.87
2019-04-11T15:11:56.325Z,13.93
2019-04-11T15:16:45.913Z,13.53
2019-04-11T15:21:37.639Z,13.60
2019-04-11T15:26:19.185Z,13.70
2019-04-11T15:30:54.781Z,13.80
2019-04-11T15:35:27.144Z,13.33
2019-04-11T15:40:18.311Z,15.27
2019-04-11T15:44:59.752Z,10.83
2019-04-11T15:49:50.424Z,13.50
2019-04-11T15:54:39.466Z,16.57
2019-04-11T15:59:19.295Z,18.90
2019-04-11T16:03:51.090Z,15.67
2019-04-11T16:08:43.312Z,13.80
2019-04-11T16:13:19.236Z,15.93
2019-04-11T16:18:10.191Z,19.07
2019-04-11T16:22:55.381Z,12.97
2019-04-11T16:27:48.465Z,12.13
2019-04-11T16:32:21.321Z,10.83
2019-04-11T16:37:12.519Z,10.73
2019-04-11T16:42:04.483Z,13.50
2019-04-11T16:46:55.518Z,13.63
2019-04-11T16:51:31.000Z,12.13
2019-04-11T16:56:05.613Z,21.20
2019-04-11T17:00:36.967Z,17.83
2019-04-11T17:05:09.707Z,19.27
2019-04-11T17:14:27.872Z,14.33
2019-04-11T17:18:58.931Z,12.73
2019-04-11T17:23:51.409Z,16.13
2019-04-11T17:28:23.098Z,21.03
2019-04-11T17:32:57.724Z,19.47
2019-04-11T17:37:33.214Z,25.33
2019-04-11T17:42:05.021Z,18.97
2019-04-11T17:46:38.906Z,18.63
2019-04-11T17:51:11.724Z,19.10
2019-04-11T17:55:52.024Z,26.53
2019-04-11T18:00:31.710Z,22.30
2019-04-11T18:05:05.799Z,21.57
2019-04-11T18:09:37.955Z,17.97
2019-04-11T18:14:12.108Z,25.63
2019-04-11T18:18:42.901Z,17.57
2019-04-11T18:23:14.852Z,17.57
2019-04-11T18:27:51.756Z,17.80
2019-04-11T18:32:22.683Z,22.07
2019-04-11T18:36:54.837Z,19.37
2019-04-11T18:41:30.932Z,20.87
2019-04-11T18:46:03.164Z,23.57
2019-04-11T18:50:37.677Z,33.63
2019-04-11T18:55:10.950Z,35.10
2019-04-11T18:59:42.303Z,29.63
2019-04-11T19:04:13.998Z,26.87
2019-04-11T19:08:45.539Z,22.83
2019-04-11T19:13:17.538Z,22.37
2019-04-11T19:18:05.306Z,33.97
2019-04-11T19:22:37.067Z,22.13
2019-04-11T19:26:58.457Z,23.67
2019-04-11T19:31:31.013Z,29.90
2019-04-11T19:36:04.459Z,26.40
2019-04-11T19:40:39.843Z,24.27
2019-04-11T19:49:47.574Z,21.60
2019-04-11T19:54:19.942Z,26.63
2019-04-11T19:58:54.043Z,23.40
2019-04-11T20:03:24.775Z,33.20
2019-04-11T20:07:55.826Z,39.57
2019-04-11T20:12:27.761Z,39.93
2019-04-11T20:17:02.915Z,41.03
2019-04-11T20:21:38.435Z,43.30
2019-04-11T20:26:11.825Z,38.50
2019-04-11T20:30:43.263Z,44.50
2019-04-11T20:35:28.240Z,33.73
2019-04-11T20:39:51.239Z,37.70
2019-04-11T20:44:27.219Z,37.43
2019-04-11T20:48:59.748Z,34.03
2019-04-11T20:53:36.772Z,39.03
2019-04-11T20:58:03.749Z,35.20
2019-04-11T21:02:35.024Z,32.63
2019-04-11T21:07:25.811Z,33.47
2019-04-11T21:11:58.130Z,39.40
2019-04-11T21:16:31.714Z,35.17
2019-04-11T21:21:03.493Z,34.27
2019-04-11T21:25:35.341Z,40.47
2019-04-11T21:30:07.466Z,35.03
2019-04-11T21:34:42.631Z,34.17
2019-04-11T21:39:15.268Z,36.93
2019-04-11T21:43:46.755Z,43.23
2019-04-11T21:48:19.442Z,35.50
2019-04-11T21:57:28.377Z,41.10
2019-04-11T22:02:00.138Z,44.80
2019-04-11T22:06:35.438Z,45.43
2019-04-11T22:11:03.892Z,54.33
2019-04-11T22:15:55.795Z,42.50
2019-04-11T22:20:26.578Z,45.50
2019-04-11T22:24:59.766Z,34.70
2019-04-11T22:34:10.481Z,37.87
2019-04-11T22:38:42.598Z,42.30
2019-04-11T22:43:24.129Z,40.73
2019-04-11T22:47:50.628Z,40.77
2019-04-11T22:52:24.165Z,36.87
2019-04-11T22:57:17.266Z,36.97
2019-04-11T23:01:50.615Z,34.50
2019-04-11T23:06:23.280Z,28.17
2019-04-11T23:10:54.437Z,34.73
2019-04-11T23:15:26.325Z,37.03
2019-04-11T23:19:58.969Z,33.07
2019-04-11T23:24:31.498Z,33.13
2019-04-11T23:29:03.008Z,36.33
2019-04-11T23:33:35.147Z,33.70
2019-04-11T23:38:07.587Z,34.60
2019-04-11T23:42:39.737Z,28.23
2019-04-11T23:47:11.785Z,28.60
2019-04-11T23:51:43.368Z,31.30
2019-04-11T23:56:15.846Z,19.60
